Time;durP1;ratioP1;P1;durP2;ratioP2;P2;SDS_P1;SDS_P2;PMS_P1;PMS_P2;Temp;Humidity;BMP_temperature;BMP_pressure;BME280_temperature;BME280_humidity;BME280_pressure;Samples;Min_cycle;Max_cycle;Signal;HPM_P1;HPM_P2
2022/04/09 00:01:15;;;;;;;2.30;1.37;;;4.20;98.30;;;;;;5043156;28;20472;-45
2022/04/09 00:03:42;;;;;;;2.07;1.73;;;4.00;98.40;;;;;;5045469;28;21384;-45
2022/04/09 00:06:09;;;;;;;6.80;1.63;;;4.10;98.60;;;;;;5041879;28;20474;-45
2022/04/09 00:08:35;;;;;;;2.77;1.70;;;4.10;98.60;;;;;;5047907;28;20484;-46
2022/04/09 00:11:02;;;;;;;2.67;1.90;;;4.10;98.60;;;;;;5044075;28;20479;-46
2022/04/09 00:13:30;;;;;;;4.63;2.63;;;4.10;98.50;;;;;;5047358;28;20490;-47
2022/04/09 00:15:57;;;;;;;2.70;2.13;;;4.10;98.50;;;;;;5042865;28;21141;-46
2022/04/09 00:18:23;;;;;;;3.50;2.30;;;4.10;98.50;;;;;;5047301;28;20476;-47
2022/04/09 00:20:50;;;;;;;5.83;2.23;;;4.10;98.50;;;;;;5041589;28;20486;-46
2022/04/09 00:23:18;;;;;;;3.50;2.70;;;4.10;98.70;;;;;;5048318;28;21094;-46
2022/04/09 00:25:45;;;;;;;3.80;2.80;;;4.10;98.60;;;;;;5024825;28;20825;-46
2022/04/09 00:28:12;;;;;;;7.17;2.60;;;4.00;98.60;;;;;;5039670;28;20958;-47
2022/04/09 00:30:40;;;;;;;3.63;3.33;;;4.00;98.70;;;;;;5045137;28;20484;-47
2022/04/09 00:33:07;;;;;;;3.00;2.70;;;4.00;98.70;;;;;;5057675;28;20476;-46
2022/04/09 00:35:33;;;;;;;11.27;5.80;;;4.00;98.80;;;;;;5051541;28;20471;-46
2022/04/09 00:38:00;;;;;;;6.23;4.67;;;4.00;98.90;;;;;;5044427;28;20569;-46
2022/04/09 00:40:27;;;;;;;6.00;3.80;;;4.00;98.80;;;;;;5048848;28;20540;-46
2022/04/09 00:42:55;;;;;;;9.03;4.70;;;4.00;98.80;;;;;;5050673;28;20513;-47
2022/04/09 00:45:21;;;;;;;9.70;5.47;;;4.00;98.90;;;;;;5047305;28;20483;-46
2022/04/09 00:47:50;;;;;;;7.27;4.50;;;4.00;98.90;;;;;;5049450;28;20518;-46
2022/04/09 00:50:16;;;;;;;9.43;4.70;;;4.00;98.90;;;;;;5048647;28;20470;-46
2022/04/09 00:52:48;;;;;;;10.90;7.10;;;4.00;99.00;;;;;;5050623;28;20481;-48
2022/04/09 00:55:15;;;;;;;7.20;4.97;;;;;;;;;;5048072;28;20969;-47
2022/04/09 00:57:45;;;;;;;11.87;6.43;;;4.00;99.10;;;;;;5049140;28;20475;-46
2022/04/09 01:00:14;;;;;;;9.87;6.17;;;4.00;99.10;;;;;;5049268;28;20481;-46
2022/04/09 01:02:43;;;;;;;9.50;6.37;;;4.00;99.10;;;;;;5050590;28;20586;-46
2022/04/09 01:05:13;;;;;;;11.63;7.20;;;4.00;99.10;;;;;;5029951;28;21185;-46
2022/04/09 01:07:40;;;;;;;7.33;5.07;;;4.00;99.10;;;;;;5028750;28;21039;-46
2022/04/09 01:10:08;;;;;;;15.70;6.93;;;4.00;99.10;;;;;;5043687;28;21381;-46
2022/04/09 01:12:37;;;;;;;9.30;7.07;;;3.90;99.10;;;;;;5031137;28;20853;-46
2022/04/09 01:15:05;;;;;;;14.73;6.97;;;3.90;99.10;;;;;;5023048;28;20484;-46
2022/04/09 01:17:32;;;;;;;12.33;7.90;;;3.90;99.20;;;;;;5029531;28;20793;-46
2022/04/09 01:19:58;;;;;;;14.40;8.40;;;3.90;99.30;;;;;;5027105;28;20477;-47
2022/04/09 01:22:26;;;;;;;12.90;7.87;;;3.90;99.40;;;;;;5028936;28;20889;-47
2022/04/09 01:24:53;;;;;;;12.13;6.60;;;3.90;99.30;;;;;;5027817;28;20477;-46
2022/04/09 01:27:20;;;;;;;13.27;8.53;;;3.90;99.40;;;;;;5029538;28;20994;-45
2022/04/09 01:29:46;;;;;;;14.00;8.97;;;3.90;99.50;;;;;;5027580;28;20492;-45
2022/04/09 01:32:13;;;;;;;14.93;7.20;;;3.90;99.50;;;;;;5025818;28;21508;-46
2022/04/09 01:34:40;;;;;;;3.90;3.27;;;3.90;99.40;;;;;;5022506;28;20480;-45
2022/04/09 01:37:07;;;;;;;7.10;5.73;;;3.90;99.40;;;;;;5028545;28;20491;-45
2022/04/09 01:39:35;;;;;;;15.00;9.17;;;3.90;99.50;;;;;;5025225;28;20485;-47
2022/04/09 01:42:02;;;;;;;10.67;6.87;;;3.90;99.50;;;;;;5027216;28;21326;-46
2022/04/09 01:44:29;;;;;;;16.70;8.50;;;3.90;99.40;;;;;;5019576;28;21502;-46
2022/04/09 01:46:55;;;;;;;15.47;6.27;;;3.90;99.50;;;;;;5034239;28;20904;-46
2022/04/09 01:49:22;;;;;;;10.17;7.53;;;3.90;99.50;;;;;;5029426;28;20505;-45
2022/04/09 01:51:50;;;;;;;6.20;4.80;;;3.90;99.50;;;;;;5042675;28;20484;-45
2022/04/09 01:54:16;;;;;;;14.73;10.10;;;4.00;99.60;;;;;;5020920;28;20472;-46
2022/04/09 01:56:44;;;;;;;15.73;10.77;;;4.00;99.60;;;;;;5039477;28;20518;-47
2022/04/09 01:59:11;;;;;;;13.67;7.57;;;4.00;99.60;;;;;;5032740;28;20505;-46
2022/04/09 02:01:38;;;;;;;16.70;10.90;;;4.00;99.90;;;;;;5036052;28;20493;-46
2022/04/09 02:04:05;;;;;;;16.63;11.33;;;4.00;99.70;;;;;;5042925;28;20479;-46
2022/04/09 02:06:32;;;;;;;17.10;11.30;;;4.00;99.50;;;;;;5049198;28;20488;-48
2022/04/09 02:08:59;;;;;;;15.47;10.60;;;4.00;99.80;;;;;;5048248;28;20482;-46
2022/04/09 02:11:26;;;;;;;18.13;11.00;;;4.00;99.80;;;;;;5038272;28;20569;-45
2022/04/09 02:13:54;;;;;;;24.27;10.03;;;4.10;99.80;;;;;;5044317;28;20855;-46
2022/04/09 02:16:21;;;;;;;19.13;11.83;;;4.10;99.80;;;;;;5045002;28;20491;-46
2022/04/09 02:18:48;;;;;;;15.50;10.07;;;4.10;99.70;;;;;;5050028;28;20548;-45
2022/04/09 02:21:14;;;;;;;10.10;6.60;;;4.10;99.60;;;;;;5046288;28;20493;-46
2022/04/09 02:23:41;;;;;;;11.57;7.93;;;4.10;99.30;;;;;;5040065;28;20487;-47
2022/04/09 02:26:08;;;;;;;18.67;11.97;;;4.10;99.60;;;;;;5030795;28;20485;-45
2022/04/09 02:28:35;;;;;;;10.53;7.63;;;4.10;99.60;;;;;;5024660;28;21109;-46
2022/04/09 02:31:03;;;;;;;21.00;11.70;;;4.00;99.60;;;;;;5024645;28;20725;-45
2022/04/09 02:33:30;;;;;;;12.67;8.70;;;4.00;99.60;;;;;;5030688;28;21203;-46
2022/04/09 02:35:56;;;;;;;17.20;9.07;;;4.00;99.60;;;;;;5036429;28;20491;-45
2022/04/09 02:38:24;;;;;;;10.17;7.40;;;4.00;99.40;;;;;;5033147;28;20496;-46
2022/04/09 02:40:50;;;;;;;14.87;10.33;;;4.00;99.40;;;;;;5026742;28;20477;-45
2022/04/09 02:43:17;;;;;;;16.90;7.53;;;4.00;99.50;;;;;;5022059;28;20484;-46
2022/04/09 02:45:44;;;;;;;25.23;11.20;;;3.90;99.60;;;;;;5019439;28;20559;-46
2022/04/09 02:48:12;;;;;;;19.63;10.47;;;4.00;99.80;;;;;;5022818;28;20482;-46
2022/04/09 02:50:39;;;;;;;19.13;10.83;;;4.00;99.80;;;;;;5022867;28;20493;-46
2022/04/09 02:53:06;;;;;;;18.37;10.70;;;3.90;99.70;;;;;;5017189;28;20538;-46
2022/04/09 02:55:33;;;;;;;27.90;11.97;;;3.90;99.70;;;;;;5035644;28;20551;-45
2022/04/09 02:58:01;;;;;;;18.10;11.50;;;4.00;99.90;;;;;;5028573;28;20476;-45
2022/04/09 03:00:28;;;;;;;19.90;11.30;;;3.90;99.70;;;;;;5041772;28;20522;-45
2022/04/09 03:02:55;;;;;;;10.87;6.90;;;3.90;99.70;;;;;;5023444;28;20513;-45
2022/04/09 03:05:23;;;;;;;16.37;6.90;;;3.90;99.70;;;;;;5018925;28;20506;-45
2022/04/09 03:07:50;;;;;;;23.60;14.07;;;3.90;99.70;;;;;;5023171;28;20491;-44
2022/04/09 03:10:17;;;;;;;20.70;11.50;;;3.90;99.60;;;;;;5017977;28;20541;-46
2022/04/09 03:12:44;;;;;;;19.30;11.43;;;3.90;99.80;;;;;;5033921;28;20910;-45
2022/04/09 03:15:11;;;;;;;19.50;13.73;;;3.90;99.80;;;;;;5018799;28;20477;-45
2022/04/09 03:17:37;;;;;;;15.90;9.57;;;3.90;99.60;;;;;;5021165;28;20490;-48
2022/04/09 03:20:05;;;;;;;13.43;9.50;;;3.90;99.80;;;;;;5026523;28;20474;-45
2022/04/09 03:22:34;;;;;;;24.93;14.67;;;3.90;99.70;;;;;;5022324;28;20565;-45
2022/04/09 03:25:02;;;;;;;17.00;12.37;;;4.00;99.90;;;;;;5016916;28;20518;-46
2022/04/09 03:27:29;;;;;;;24.23;14.53;;;4.00;99.70;;;;;;5029253;28;20477;-45
2022/04/09 03:29:56;;;;;;;26.40;12.23;;;4.00;99.40;;;;;;5021518;28;20546;-45
2022/04/09 03:32:24;;;;;;;24.10;15.53;;;4.00;99.40;;;;;;5021916;28;21696;-46
2022/04/09 03:34:52;;;;;;;21.50;13.70;;;4.00;99.50;;;;;;5019105;28;21075;-45
2022/04/09 03:37:19;;;;;;;17.50;11.30;;;4.00;99.50;;;;;;5021641;28;20578;-45
2022/04/09 03:39:47;;;;;;;18.80;12.40;;;3.90;99.50;;;;;;5024599;28;20481;-45
2022/04/09 03:42:14;;;;;;;19.33;11.77;;;3.90;99.20;;;;;;5022059;28;20571;-45
2022/04/09 03:44:40;;;;;;;20.30;12.37;;;3.90;99.40;;;;;;5018628;28;21030;-45
2022/04/09 03:47:07;;;;;;;17.50;11.60;;;3.90;99.50;;;;;;5025221;28;20836;-45
2022/04/09 03:49:34;;;;;;;29.13;14.80;;;3.80;99.30;;;;;;5020787;28;20481;-48
2022/04/09 03:52:01;;;;;;;17.77;11.17;;;3.80;99.30;;;;;;5021052;28;20535;-45
2022/04/09 03:54:28;;;;;;;18.83;11.43;;;3.80;99.60;;;;;;5020782;28;20489;-44
2022/04/09 03:56:56;;;;;;;21.90;9.70;;;3.80;99.50;;;;;;5035931;28;20471;-45
2022/04/09 03:59:23;;;;;;;20.77;11.40;;;3.70;99.50;;;;;;5060962;28;20570;-45
2022/04/09 04:01:50;;;;;;;14.43;10.03;;;3.70;99.40;;;;;;5027440;28;20488;-46
2022/04/09 04:04:17;;;;;;;18.50;11.60;;;3.70;99.30;;;;;;5053358;28;20480;-45
2022/04/09 04:06:44;;;;;;;23.80;9.10;;;3.70;99.50;;;;;;5038037;28;20490;-46
2022/04/09 04:09:12;;;;;;;16.63;9.20;;;3.70;99.70;;;;;;5055635;28;20882;-45
2022/04/09 04:11:39;;;;;;;21.77;13.20;;;3.60;99.70;;;;;;5037391;28;20831;-46
2022/04/09 04:14:07;;;;;;;18.90;13.40;;;3.70;99.80;;;;;;5030642;28;20773;-45
2022/04/09 04:16:34;;;;;;;23.17;11.27;;;3.50;99.40;;;;;;5033644;28;20472;-45
2022/04/09 04:19:00;;;;;;;24.10;14.67;;;3.50;99.80;;;;;;5058433;28;21312;-46
2022/04/09 04:21:27;;;;;;;23.37;14.93;;;3.50;99.50;;;;;;5044655;28;20502;-46
2022/04/09 04:23:54;;;;;;;28.07;16.37;;;3.50;99.70;;;;;;5024472;28;20505;-45
2022/04/09 04:26:21;;;;;;;16.53;11.40;;;3.50;99.70;;;;;;5039718;28;20505;-46
2022/04/09 04:28:48;;;;;;;25.10;17.40;;;3.40;99.60;;;;;;5006305;28;20935;-45
2022/04/09 04:31:16;;;;;;;23.33;15.17;;;3.30;99.90;;;;;;5034205;28;20479;-50
2022/04/09 04:33:43;;;;;;;33.47;20.07;;;3.30;99.90;;;;;;5052854;28;20480;-45
2022/04/09 04:36:10;;;;;;;33.23;15.17;;;3.30;99.90;;;;;;5009016;28;20474;-45
2022/04/09 04:38:36;;;;;;;28.20;17.57;;;3.30;99.90;;;;;;5017409;28;20504;-46
2022/04/09 04:41:04;;;;;;;22.20;11.93;;;3.40;99.90;;;;;;5030392;28;20524;-46
2022/04/09 04:43:31;;;;;;;24.70;13.30;;;3.50;99.90;;;;;;5016787;28;20498;-45
2022/04/09 04:45:58;;;;;;;14.70;9.90;;;3.50;99.90;;;;;;5017152;28;20490;-45
2022/04/09 04:48:26;;;;;;;24.00;14.23;;;3.60;99.90;;;;;;5012521;28;20492;-45
2022/04/09 04:50:53;;;;;;;19.77;11.93;;;3.60;99.90;;;;;;5031874;28;20493;-46
2022/04/09 04:53:20;;;;;;;19.30;10.03;;;3.60;99.90;;;;;;5019845;28;20519;-46
2022/04/09 04:55:46;;;;;;;21.30;13.27;;;3.60;99.90;;;;;;5017137;28;20542;-47
2022/04/09 04:58:13;;;;;;;14.10;9.00;;;3.70;99.90;;;;;;5032474;28;20476;-46
2022/04/09 05:00:40;;;;;;;24.63;13.00;;;3.70;99.90;;;;;;5034453;28;20489;-46
2022/04/09 05:03:06;;;;;;;16.90;10.33;;;3.70;99.90;;;;;;5038008;28;20589;-45
2022/04/09 05:05:34;;;;;;;20.97;12.37;;;3.80;99.90;;;;;;5029964;28;20489;-46
2022/04/09 05:08:01;;;;;;;18.50;11.33;;;3.80;99.90;;;;;;5020277;28;20482;-46
2022/04/09 05:10:28;;;;;;;15.67;10.17;;;3.80;99.90;;;;;;5020610;28;20476;-46
2022/04/09 05:12:55;;;;;;;19.03;13.57;;;3.80;99.90;;;;;;5022724;28;20510;-45
2022/04/09 05:15:22;;;;;;;24.10;9.83;;;3.80;99.90;;;;;;5017158;28;20496;-46
2022/04/09 05:17:48;;;;;;;20.93;12.07;;;3.70;99.90;;;;;;5020719;28;21142;-46
2022/04/09 05:20:17;;;;;;;19.50;11.17;;;3.70;99.90;;;;;;5048077;28;20910;-46
2022/04/09 05:22:47;;;;;;;13.73;8.37;;;3.70;99.90;;;;;;5064652;28;20511;-46
2022/04/09 05:25:16;;;;;;;24.03;14.30;;;3.70;99.90;;;;;;5023455;28;20546;-46
2022/04/09 05:27:43;;;;;;;23.63;14.97;;;3.60;99.90;;;;;;5023584;28;20906;-46
2022/04/09 05:30:11;;;;;;;25.43;16.20;;;3.60;99.90;;;;;;5023124;28;20575;-45
2022/04/09 05:32:39;;;;;;;18.97;12.60;;;3.60;99.90;;;;;;5023230;28;20481;-47
2022/04/09 05:35:07;;;;;;;26.80;12.27;;;3.60;99.90;;;;;;5021209;28;21091;-46
2022/04/09 05:37:34;;;;;;;18.43;12.97;;;3.60;99.90;;;;;;5026572;28;20485;-46
2022/04/09 05:40:05;;;;;;;20.93;13.50;;;3.70;99.80;;;;;;5022071;28;20982;-46
2022/04/09 05:42:32;;;;;;;20.80;11.97;;;3.70;99.70;;;;;;5034810;28;20482;-46
2022/04/09 05:44:59;;;;;;;24.63;13.43;;;3.70;99.70;;;;;;5046759;28;20480;-46
2022/04/09 05:47:26;;;;;;;22.23;11.63;;;3.80;99.80;;;;;;5030875;28;20493;-47
2022/04/09 05:49:53;;;;;;;27.17;11.97;;;3.80;99.90;;;;;;5022146;28;20473;-46
2022/04/09 05:52:20;;;;;;;24.47;11.07;;;3.80;99.90;;;;;;5027926;28;20835;-46
2022/04/09 05:54:47;;;;;;;19.83;11.27;;;3.80;99.90;;;;;;5041345;28;20485;-46
2022/04/09 05:57:15;;;;;;;21.27;12.93;;;3.90;99.90;;;;;;5042820;28;20479;-46
2022/04/09 05:59:41;;;;;;;27.30;14.20;;;3.90;99.90;;;;;;5023638;28;20484;-46
2022/04/09 06:02:09;;;;;;;16.20;6.57;;;3.90;99.70;;;;;;5023629;28;20497;-46
2022/04/09 06:04:36;;;;;;;14.00;9.50;;;3.90;99.70;;;;;;5033714;28;20502;-47
2022/04/09 06:07:03;;;;;;;11.27;8.03;;;3.90;99.70;;;;;;5060386;28;20490;-46
2022/04/09 06:09:31;;;;;;;21.37;10.10;;;4.00;99.70;;;;;;5033484;28;20556;-46
2022/04/09 06:11:58;;;;;;;18.03;9.87;;;4.00;99.70;;;;;;5023983;28;20496;-46
2022/04/09 06:14:26;;;;;;;17.13;11.40;;;4.00;99.90;;;;;;5022986;28;20476;-46
2022/04/09 06:16:53;;;;;;;17.70;10.60;;;4.10;99.70;;;;;;5024437;28;20485;-47
2022/04/09 06:19:19;;;;;;;36.50;20.90;;;4.10;99.70;;;;;;5023149;28;20472;-46
2022/04/09 06:21:46;;;;;;;20.43;13.37;;;4.10;99.80;;;;;;5023405;28;20503;-46
2022/04/09 06:24:13;;;;;;;23.40;13.53;;;4.60;99.50;;;;;;5030995;28;21318;-45
2022/04/09 06:26:40;;;;;;;10.83;7.40;;;4.70;99.00;;;;;;5040860;28;20905;-47
2022/04/09 06:29:07;;;;;;;30.60;13.47;;;4.70;99.30;;;;;;5029188;28;20466;-45
2022/04/09 06:31:35;;;;;;;15.27;10.80;;;4.80;99.00;;;;;;5024936;28;20502;-45
2022/04/09 06:34:01;;;;;;;18.57;11.97;;;4.80;98.80;;;;;;5046514;28;20487;-45
2022/04/09 06:36:28;;;;;;;11.90;8.43;;;4.70;98.80;;;;;;5027009;28;20538;-46
2022/04/09 06:38:55;;;;;;;25.97;13.97;;;4.60;98.80;;;;;;5022195;28;20473;-45
2022/04/09 06:41:22;;;;;;;15.40;9.93;;;4.70;98.90;;;;;;5023501;28;20528;-44
2022/04/09 06:43:49;;;;;;;25.23;12.87;;;4.70;98.70;;;;;;5021127;28;20509;-44
2022/04/09 06:46:17;;;;;;;20.53;11.67;;;4.80;98.70;;;;;;5021938;28;20497;-44
2022/04/09 06:48:45;;;;;;;24.00;14.43;;;4.80;98.60;;;;;;5021420;28;20879;-44
2022/04/09 06:51:12;;;;;;;21.00;14.20;;;;;;;;;;5020567;28;20477;-44
2022/04/09 06:53:39;;;;;;;29.77;14.77;;;4.70;98.70;;;;;;5022923;28;20489;-44
2022/04/09 06:56:06;;;;;;;22.80;14.43;;;4.70;98.70;;;;;;5020328;28;20575;-44
2022/04/09 06:58:34;;;;;;;23.27;12.77;;;4.70;99.20;;;;;;5027727;28;20497;-45
2022/04/09 07:01:01;;;;;;;20.40;13.60;;;4.70;99.00;;;;;;5014860;28;20488;-45
2022/04/09 07:03:28;;;;;;;22.00;14.47;;;4.70;99.00;;;;;;5031501;28;20481;-46
2022/04/09 07:05:56;;;;;;;26.17;13.03;;;4.90;99.20;;;;;;5030021;28;20489;-45
2022/04/09 07:08:23;;;;;;;18.07;12.50;;;4.90;99.00;;;;;;5016710;28;20560;-45
2022/04/09 07:10:49;;;;;;;23.70;12.40;;;4.90;99.20;;;;;;5034129;28;20485;-45
2022/04/09 07:13:16;;;;;;;16.47;9.77;;;5.00;98.90;;;;;;5026388;28;21038;-45
2022/04/09 07:15:43;;;;;;;24.23;12.20;;;5.10;98.80;;;;;;5021291;28;20585;-45
2022/04/09 07:18:10;;;;;;;17.73;11.53;;;5.20;98.90;;;;;;5022277;28;20476;-45
2022/04/09 07:20:37;;;;;;;26.17;11.93;;;5.20;98.80;;;;;;5023360;28;20493;-45
2022/04/09 07:23:05;;;;;;;26.13;14.50;;;5.20;98.80;;;;;;5020788;28;20469;-45
2022/04/09 07:25:33;;;;;;;15.00;7.50;;;5.30;98.70;;;;;;5040581;28;20490;-45
2022/04/09 07:28:00;;;;;;;27.97;14.00;;;5.30;98.60;;;;;;5039579;28;20482;-45
2022/04/09 07:30:27;;;;;;;22.30;14.33;;;5.40;98.70;;;;;;5036934;28;20541;-45
2022/04/09 07:32:57;;;;;;;22.07;13.30;;;5.50;98.50;;;;;;5034183;28;20480;-45
2022/04/09 07:35:24;;;;;;;15.13;10.57;;;5.60;98.40;;;;;;5018047;28;20811;-45
2022/04/09 07:37:55;;;;;;;36.17;13.60;;;5.60;98.10;;;;;;5021271;28;20486;-44
2022/04/09 07:40:25;;;;;;;22.93;13.03;;;5.70;98.20;;;;;;5021080;28;20492;-44
2022/04/09 07:42:53;;;;;;;23.23;13.73;;;5.70;98.20;;;;;;5033387;28;20497;-45
2022/04/09 07:45:20;;;;;;;31.50;13.80;;;5.80;98.10;;;;;;5021685;28;20481;-45
2022/04/09 07:47:52;;;;;;;30.00;13.87;;;5.80;98.00;;;;;;5029523;28;20492;-44
2022/04/09 07:50:19;;;;;;;23.60;11.93;;;5.70;97.50;;;;;;5015224;28;20488;-44
2022/04/09 07:52:45;;;;;;;22.77;12.37;;;5.70;97.50;;;;;;5011766;28;20493;-44
2022/04/09 07:55:15;;;;;;;21.87;11.17;;;5.80;97.80;;;;;;5039243;28;21066;-44
2022/04/09 07:57:43;;;;;;;23.10;11.50;;;5.90;97.40;;;;;;5037068;28;20570;-44
2022/04/09 08:00:10;;;;;;;24.90;11.87;;;6.10;97.40;;;;;;5019873;28;20563;-44
2022/04/09 08:02:37;;;;;;;15.43;9.23;;;6.10;97.30;;;;;;5027970;28;20491;-45
2022/04/09 08:05:04;;;;;;;16.67;9.40;;;6.20;97.40;;;;;;5035304;28;20476;-44
2022/04/09 08:07:31;;;;;;;13.83;6.10;;;6.10;97.00;;;;;;5033097;28;20491;-44
2022/04/09 08:09:58;;;;;;;15.17;9.40;;;6.10;97.20;;;;;;5017024;28;20473;-45
2022/04/09 08:12:25;;;;;;;13.90;10.30;;;6.20;97.30;;;;;;5020368;28;20496;-44
2022/04/09 08:14:53;;;;;;;17.40;9.43;;;6.20;97.60;;;;;;5019301;28;20498;-44
2022/04/09 08:17:20;;;;;;;15.60;8.60;;;6.50;97.00;;;;;;5016536;28;20487;-44
2022/04/09 08:19:48;;;;;;;15.53;9.40;;;6.50;97.20;;;;;;5019148;28;20970;-45
2022/04/09 08:22:14;;;;;;;19.73;10.27;;;6.90;97.30;;;;;;5019498;28;20976;-45
2022/04/09 08:24:42;;;;;;;31.53;11.93;;;7.00;96.80;;;;;;5018237;28;20492;-44
2022/04/09 08:27:09;;;;;;;23.23;6.73;;;7.30;96.20;;;;;;5019703;28;20965;-45
2022/04/09 08:29:36;;;;;;;29.83;9.90;;;7.40;96.30;;;;;;5017693;28;20955;-45
2022/04/09 08:32:05;;;;;;;16.60;8.10;;;7.50;95.80;;;;;;5021733;28;20481;-44
2022/04/09 08:34:34;;;;;;;14.20;8.73;;;7.40;95.90;;;;;;5017977;28;20538;-45
2022/04/09 08:37:01;;;;;;;15.13;8.10;;;7.50;95.50;;;;;;5023473;28;20599;-44
2022/04/09 08:39:28;;;;;;;16.90;9.07;;;7.40;95.30;;;;;;5022331;28;20494;-44
2022/04/09 08:41:58;;;;;;;22.47;9.10;;;7.30;95.20;;;;;;5021075;28;20533;-44
2022/04/09 08:44:25;;;;;;;20.00;9.40;;;7.30;95.50;;;;;;5014430;28;20530;-44
2022/04/09 08:46:54;;;;;;;19.93;9.93;;;7.20;94.90;;;;;;5012973;28;21060;-44
2022/04/09 08:49:24;;;;;;;16.17;9.13;;;7.20;94.90;;;;;;5033265;28;20491;-44
2022/04/09 08:51:51;;;;;;;21.07;10.37;;;7.30;95.20;;;;;;5020785;28;21048;-44
2022/04/09 08:54:18;;;;;;;19.53;9.93;;;7.30;95.70;;;;;;5018840;28;20572;-44
2022/04/09 08:56:45;;;;;;;25.07;10.60;;;7.30;95.20;;;;;;5020240;28;20514;-45
2022/04/09 08:59:12;;;;;;;12.10;8.47;;;7.40;95.60;;;;;;5015715;28;20577;-45
2022/04/09 09:01:39;;;;;;;26.50;8.40;;;7.40;95.80;;;;;;5021995;28;20539;-45
2022/04/09 09:04:06;;;;;;;15.50;8.57;;;7.40;95.30;;;;;;5023359;28;20485;-45
2022/04/09 09:06:38;;;;;;;11.23;7.80;;;7.40;95.40;;;;;;5030363;28;20549;-44
2022/04/09 09:09:08;;;;;;;18.73;10.00;;;7.40;95.30;;;;;;5061053;28;20485;-44
2022/04/09 09:11:46;;;;;;;12.90;8.10;;;7.30;95.30;;;;;;5015115;28;20917;-45
2022/04/09 09:14:25;;;;;;;16.87;8.00;;;7.40;95.70;;;;;;5019462;28;20510;-45
2022/04/09 09:16:53;;;;;;;14.80;9.10;;;7.40;95.80;;;;;;5044103;28;20553;-44
2022/04/09 09:19:21;;;;;;;16.50;9.50;;;7.40;95.60;;;;;;5029425;28;20490;-45
2022/04/09 09:21:54;;;;;;;11.80;8.30;;;7.60;96.00;;;;;;5023093;28;20488;-45
2022/04/09 09:24:21;;;;;;;12.53;8.70;;;7.70;95.50;;;;;;5020521;28;20928;-45
2022/04/09 09:26:58;;;;;;;23.17;8.60;;;7.80;94.80;;;;;;5024275;28;20498;-45
2022/04/09 09:29:27;;;;;;;18.33;8.70;;;7.80;94.30;;;;;;5019050;28;21169;-45
2022/04/09 09:31:55;;;;;;;10.00;6.20;;;7.80;94.80;;;;;;5021413;28;20491;-44
2022/04/09 09:34:22;;;;;;;7.80;4.23;;;7.90;94.40;;;;;;5018342;28;20483;-45
2022/04/09 09:36:49;;;;;;;16.93;8.03;;;7.90;94.50;;;;;;5016797;28;20483;-45
2022/04/09 09:39:19;;;;;;;13.20;6.20;;;8.00;94.60;;;;;;5029299;28;20485;-45
2022/04/09 09:41:49;;;;;;;14.87;7.83;;;8.10;94.60;;;;;;5022369;28;20843;-45
2022/04/09 09:44:16;;;;;;;13.00;6.83;;;8.10;94.30;;;;;;5020238;28;20479;-45
2022/04/09 09:46:44;;;;;;;16.13;7.40;;;8.10;94.30;;;;;;5022124;28;20952;-44
2022/04/09 09:49:11;;;;;;;22.77;9.37;;;8.00;94.10;;;;;;5021031;28;20898;-53
2022/04/09 09:51:38;;;;;;;11.73;7.00;;;8.00;94.30;;;;;;5024719;28;20475;-45
2022/04/09 09:54:07;;;;;;;17.20;8.47;;;8.00;94.10;;;;;;5022927;28;20478;-44
2022/04/09 09:56:36;;;;;;;18.57;8.80;;;8.00;94.00;;;;;;5019271;28;20481;-44
2022/04/09 09:59:06;;;;;;;20.07;9.20;;;8.00;94.80;;;;;;5020388;28;20634;-45
2022/04/09 10:01:37;;;;;;;25.70;9.43;;;8.20;94.60;;;;;;5027105;28;20578;-44
2022/04/09 10:04:05;;;;;;;14.07;9.20;;;8.30;94.60;;;;;;5057178;28;20569;-44
2022/04/09 10:06:33;;;;;;;26.03;10.50;;;8.30;94.20;;;;;;5021778;28;20484;-45
2022/04/09 10:09:00;;;;;;;10.27;7.80;;;8.40;94.50;;;;;;5033978;28;20793;-44
2022/04/09 10:11:28;;;;;;;13.07;8.77;;;8.40;94.10;;;;;;5029806;28;20491;-45
2022/04/09 10:13:58;;;;;;;21.43;10.33;;;8.50;94.00;;;;;;5033044;28;20503;-44
2022/04/09 10:16:28;;;;;;;14.40;7.33;;;8.50;93.60;;;;;;5050657;28;20481;-45
2022/04/09 10:19:00;;;;;;;19.17;9.13;;;8.70;94.10;;;;;;5040694;28;20556;-45
2022/04/09 10:21:28;;;;;;;14.23;6.80;;;8.90;94.20;;;;;;5018553;28;20595;-45
2022/04/09 10:23:56;;;;;;;22.57;8.20;;;8.80;93.10;;;;;;5026749;28;20499;-46
2022/04/09 10:26:24;;;;;;;16.47;6.40;;;8.90;93.50;;;;;;5021618;28;20476;-46
2022/04/09 10:28:51;;;;;;;26.57;8.50;;;8.80;93.30;;;;;;5023214;28;20476;-46
2022/04/09 10:31:36;;;;;;;18.97;9.03;;;8.80;93.40;;;;;;5022220;28;20537;-46
2022/04/09 10:34:05;;;;;;;27.40;7.97;;;8.80;93.60;;;;;;5019250;28;20518;-46
2022/04/09 10:37:08;;;;;;;20.60;7.43;;;8.90;92.70;;;;;;5022386;28;20485;-45
2022/04/09 10:39:49;;;;;;;31.77;8.80;;;8.90;93.20;;;;;;5023168;28;20574;-46
2022/04/09 10:42:46;;;;;;;16.90;7.40;;;9.10;93.40;;;;;;5024890;28;21270;-46
2022/04/09 10:45:13;;;;;;;11.57;6.20;;;9.20;93.70;;;;;;5007506;28;20475;-46
2022/04/09 10:48:10;;;;;;;17.27;7.00;;;9.40;92.90;;;;;;5052800;28;20534;-47
2022/04/09 10:50:57;;;;;;;12.47;5.93;;;9.40;92.40;;;;;;5023907;28;20473;-46
2022/04/09 10:53:25;;;;;;;20.77;9.10;;;9.20;91.40;;;;;;5017250;28;20475;-46
2022/04/09 10:56:17;;;;;;;13.57;5.30;;;9.30;93.00;;;;;;5025209;28;20482;-46
2022/04/09 10:59:04;;;;;;;13.30;7.13;;;9.30;92.80;;;;;;5022705;28;20842;-47
2022/04/09 11:01:52;;;;;;;13.13;5.67;;;9.40;91.50;;;;;;5043358;28;21239;-45
2022/04/09 11:04:43;;;;;;;7.60;4.70;;;9.40;91.50;;;;;;5047978;28;20493;-50
2022/04/09 11:07:12;;;;;;;20.80;6.63;;;9.30;91.90;;;;;;5010449;28;21269;-46
2022/04/09 11:09:57;;;;;;;18.30;6.40;;;9.40;92.60;;;;;;5050128;28;20484;-45
2022/04/09 11:12:25;;;;;;;17.57;6.60;;;9.40;92.40;;;;;;5025907;28;20479;-45
2022/04/09 11:14:55;;;;;;;12.03;4.90;;;9.40;92.20;;;;;;5019316;28;20872;-46
2022/04/09 11:17:30;;;;;;;13.63;5.33;;;9.40;91.50;;;;;;5020148;28;20986;-47
2022/04/09 11:20:04;;;;;;;20.03;5.43;;;9.50;91.50;;;;;;5021272;28;20493;-45
2022/04/09 11:22:33;;;;;;;8.83;5.40;;;9.50;91.80;;;;;;5021136;28;20493;-45
2022/04/09 11:25:00;;;;;;;10.90;5.47;;;9.60;91.30;;;;;;5041968;28;20561;-45
2022/04/09 11:27:27;;;;;;;9.47;4.20;;;9.80;90.20;;;;;;5045721;28;20490;-45
2022/04/09 11:29:55;;;;;;;18.83;5.07;;;9.80;90.40;;;;;;5061987;28;20477;-46
2022/04/09 11:32:22;;;;;;;7.17;5.20;;;9.90;91.20;;;;;;5060347;28;21051;-49
2022/04/09 11:34:51;;;;;;;29.80;4.60;;;10.30;92.10;;;;;;5047542;28;20490;-46
2022/04/09 11:37:19;;;;;;;8.90;4.10;;;10.30;92.30;;;;;;5044158;28;20465;-45
2022/04/09 11:39:48;;;;;;;12.90;4.87;;;10.80;92.10;;;;;;5025625;28;20492;-45
2022/04/09 11:42:16;;;;;;;10.40;4.30;;;11.30;88.40;;;;;;5021555;28;20477;-46
2022/04/09 11:44:43;;;;;;;9.20;4.00;;;11.40;90.00;;;;;;5022339;28;20489;-45
2022/04/09 11:47:12;;;;;;;13.10;5.53;;;11.40;89.20;;;;;;5041725;28;20998;-45
2022/04/09 11:49:39;;;;;;;20.40;8.20;;;11.50;88.10;;;;;;5026069;28;20478;-48
2022/04/09 11:52:07;;;;;;;7.50;4.47;;;11.50;89.80;;;;;;5022495;28;20795;-45
2022/04/09 11:54:38;;;;;;;6.30;4.33;;;11.50;87.40;;;;;;5025569;28;20478;-45
2022/04/09 11:57:10;;;;;;;8.60;4.70;;;11.70;87.20;;;;;;5019142;28;20499;-45
2022/04/09 11:59:38;;;;;;;13.10;3.97;;;11.70;84.90;;;;;;5020124;28;20569;-45
2022/04/09 12:02:16;;;;;;;7.20;4.27;;;12.00;88.70;;;;;;5021257;28;20470;-45
2022/04/09 12:04:44;;;;;;;4.80;3.50;;;12.10;87.10;;;;;;5019050;28;20488;-45
2022/04/09 12:07:11;;;;;;;11.77;4.50;;;12.00;86.30;;;;;;5020176;28;20552;-45
2022/04/09 12:09:39;;;;;;;16.97;5.07;;;11.80;85.90;;;;;;5021515;28;20478;-45
2022/04/09 12:12:08;;;;;;;6.87;4.63;;;11.80;87.20;;;;;;5020459;28;20490;-45
2022/04/09 12:14:35;;;;;;;6.70;3.60;;;11.80;85.70;;;;;;5014806;28;20925;-45
2022/04/09 12:17:13;;;;;;;4.00;3.07;;;12.10;84.20;;;;;;5018836;28;20814;-45
2022/04/09 12:19:43;;;;;;;8.50;2.50;;;12.10;81.10;;;;;;5029085;28;20506;-46
2022/04/09 12:22:14;;;;;;;9.80;3.30;;;12.20;82.90;;;;;;5036133;28;21021;-45
2022/04/09 12:24:53;;;;;;;4.80;2.47;;;12.20;79.40;;;;;;5036066;28;20477;-46
2022/04/09 12:27:22;;;;;;;5.73;3.40;;;12.20;79.30;;;;;;5036431;28;21395;-45
2022/04/09 12:29:51;;;;;;;10.07;2.50;;;12.30;80.50;;;;;;5041797;28;20484;-45
2022/04/09 12:32:23;;;;;;;4.10;2.43;;;12.30;80.30;;;;;;5055102;28;20496;-45
2022/04/09 12:34:55;;;;;;;11.53;2.63;;;12.30;79.30;;;;;;5043280;28;20831;-45
2022/04/09 12:37:21;;;;;;;7.73;2.80;;;12.10;76.50;;;;;;5044996;28;20571;-45
2022/04/09 12:39:48;;;;;;;8.43;3.00;;;;;;;;;;5046215;28;20486;-45
2022/04/09 12:42:17;;;;;;;4.80;2.93;;;12.00;74.80;;;;;;5043904;28;20481;-45
2022/04/09 12:44:44;;;;;;;9.13;2.40;;;12.00;77.20;;;;;;5045005;28;20524;-45
2022/04/09 12:47:11;;;;;;;5.40;2.60;;;12.40;79.10;;;;;;5044719;28;20909;-45
2022/04/09 12:49:40;;;;;;;7.73;1.80;;;12.40;79.60;;;;;;5046111;28;20477;-46